Time;durP1;ratioP1;P1;durP2;ratioP2;P2;SDS_P1;SDS_P2;PMS_P1;PMS_P2;Temp;Humidity;BMP_temperature;BMP_pressure;BME280_temperature;BME280_humidity;BME280_pressure;Samples;Min_cycle;Max_cycle;Signal;HPM_P1;HPM_P2
2023/10/15 00:00:13;;;;;;;0.00;0.00;;;7.90;99.90;;;;;;6217174;23;20014;-85
2023/10/15 00:02:40;;;;;;;0.10;0.10;;;7.90;99.90;;;;;;6217317;23;20038;-84
2023/10/15 00:05:06;;;;;;;0.10;0.10;;;;;;;;;;6216803;23;20089;-84
2023/10/15 00:07:32;;;;;;;0.10;0.10;;;;;;;;;;6216736;23;20035;-84
2023/10/15 00:09:59;;;;;;;0.10;0.10;;;;;;;;;;6216036;23;20005;-84
2023/10/15 00:12:26;;;;;;;0.10;0.10;;;;;;;;;;6217005;23;20000;-84
2023/10/15 00:14:52;;;;;;;0.00;0.00;;;;;;;;;;6217916;23;20074;-84
2023/10/15 00:17:18;;;;;;;0.10;0.10;;;;;;;;;;6217068;23;20007;-84
2023/10/15 00:19:44;;;;;;;0.10;0.10;;;;;;;;;;6217836;23;20000;-85
2023/10/15 00:22:10;;;;;;;0.10;0.10;;;;;;;;;;6219600;23;20000;-84
2023/10/15 00:24:37;;;;;;;0.10;0.10;;;;;;;;;;6219692;23;20089;-84
2023/10/15 00:27:03;;;;;;;0.10;0.10;;;;;;;;;;6218820;23;20016;-84
2023/10/15 00:29:29;;;;;;;0.10;0.10;;;;;;;;;;6219330;22;20003;-85
2023/10/15 00:31:55;;;;;;;0.10;0.10;;;;;;;;;;6218864;23;20005;-84
2023/10/15 00:34:22;;;;;;;0.10;0.10;;;;;;;;;;6219435;23;19996;-83
2023/10/15 00:36:48;;;;;;;0.10;0.10;;;7.60;99.90;;;;;;6218561;23;20004;-84
2023/10/15 00:39:20;;;;;;;0.10;0.10;;;;;;;;;;6245565;22;20011;-84
2023/10/15 00:41:50;;;;;;;0.10;0.10;;;7.70;99.90;;;;;;6218712;23;20015;-84
2023/10/15 00:44:16;;;;;;;0.03;0.03;;;7.50;99.90;;;;;;6219403;23;20050;-85
2023/10/15 00:46:45;;;;;;;0.10;0.10;;;7.80;99.90;;;;;;6218939;23;20502;-84
2023/10/15 00:49:14;;;;;;;0.10;0.10;;;7.70;99.90;;;;;;6219805;22;20009;-84
2023/10/15 00:51:41;;;;;;;0.10;0.10;;;;;;;;;;6219194;23;20079;-84
2023/10/15 00:54:11;;;;;;;0.10;0.10;;;7.80;99.90;;;;;;6218959;23;20068;-83
2023/10/15 00:56:38;;;;;;;0.00;0.00;;;7.90;99.90;;;;;;6218539;23;20000;-84
2023/10/15 01:01:42;;;;;;;0.10;0.10;;;;;;;;;;6245956;23;20008;-84
2023/10/15 01:04:15;;;;;;;0.10;0.10;;;;;;;;;;6218667;23;20007;-84
2023/10/15 01:06:46;;;;;;;0.00;0.00;;;;;;;;;;6219296;23;20007;-84
2023/10/15 01:09:20;;;;;;;0.10;0.10;;;7.80;99.90;;;;;;6245515;22;20008;-83
2023/10/15 01:12:18;;;;;;;0.10;0.10;;;8.00;99.90;;;;;;6219437;23;20004;-84
2023/10/15 01:14:44;;;;;;;0.10;0.10;;;;;;;;;;6218564;23;20015;-84
2023/10/15 01:17:10;;;;;;;0.10;0.10;;;;;;;;;;6218622;23;19996;-84
2023/10/15 01:19:36;;;;;;;0.10;0.10;;;;;;;;;;6219064;23;20012;-83
2023/10/15 01:22:09;;;;;;;0.10;0.10;;;8.10;99.90;;;;;;6218899;23;20004;-84
2023/10/15 01:24:36;;;;;;;0.10;0.10;;;8.10;99.90;;;;;;6219566;23;20031;-84
2023/10/15 01:29:33;;;;;;;0.10;0.10;;;;;;;;;;6252403;22;20008;-84
2023/10/15 01:32:08;;;;;;;0.10;0.10;;;8.40;99.90;;;;;;6217435;23;20018;-84
2023/10/15 01:34:45;;;;;;;0.10;0.10;;;;;;;;;;6218717;23;20008;-85
2023/10/15 01:37:17;;;;;;;0.10;0.10;;;7.80;99.90;;;;;;6218241;23;20011;-87
2023/10/15 01:39:47;;;;;;;0.10;0.10;;;8.20;99.90;;;;;;6218356;23;20020;-84
2023/10/15 01:42:32;;;;;;;0.10;0.10;;;;;;;;;;6218870;23;20011;-84
2023/10/15 01:47:45;;;;;;;0.10;0.10;;;8.30;99.90;;;;;;6255919;23;20008;-84
2023/10/15 01:50:15;;;;;;;0.10;0.10;;;8.30;99.90;;;;;;6218567;23;20091;-86
2023/10/15 01:52:42;;;;;;;0.00;0.00;;;;;;;;;;6219099;23;20011;-84
2023/10/15 01:55:08;;;;;;;0.10;0.10;;;;;;;;;;6218635;23;20087;-83
2023/10/15 01:57:36;;;;;;;0.10;0.10;;;8.30;99.90;;;;;;6218597;23;20004;-83
2023/10/15 02:00:12;;;;;;;0.10;0.10;;;8.30;99.90;;;;;;6218032;23;20015;-85
2023/10/15 02:02:38;;;;;;;0.10;0.10;;;;;;;;;;6218861;23;20008;-83
2023/10/15 02:05:04;;;;;;;0.10;0.10;;;;;;;;;;6218163;23;20011;-84
2023/10/15 02:07:35;;;;;;;0.10;0.10;;;;;;;;;;6218334;23;20030;-83
2023/10/15 02:10:03;;;;;;;0.10;0.10;;;;;;;;;;6217715;23;20028;-85
2023/10/15 02:12:30;;;;;;;0.10;0.10;;;;;;;;;;6218708;23;20430;-84
2023/10/15 02:14:56;;;;;;;0.10;0.10;;;;;;;;;;6218642;23;20004;-82
2023/10/15 02:17:24;;;;;;;0.10;0.10;;;;;;;;;;6218791;23;20008;-83
2023/10/15 02:19:55;;;;;;;0.10;0.10;;;;;;;;;;6218669;23;20014;-84
2023/10/15 02:22:21;;;;;;;0.10;0.10;;;;;;;;;;6218538;23;20000;-83
2023/10/15 02:24:47;;;;;;;0.10;0.10;;;8.40;99.90;;;;;;6218644;23;20008;-85
2023/10/15 02:27:23;;;;;;;0.10;0.10;;;8.40;99.90;;;;;;6217828;23;20012;-85
2023/10/15 02:29:52;;;;;;;0.08;0.08;;;;;;;;;;6217702;23;20470;-83
2023/10/15 02:34:51;;;;;;;0.10;0.10;;;8.40;99.90;;;;;;6245080;23;20001;-86
2023/10/15 02:37:23;;;;;;;0.10;0.10;;;8.20;99.90;;;;;;6244389;23;19996;-83
2023/10/15 02:39:52;;;;;;;0.10;0.10;;;;;;;;;;6218172;23;20090;-83
2023/10/15 02:42:30;;;;;;;0.10;0.10;;;8.50;99.90;;;;;;6218009;23;20011;-83
2023/10/15 02:44:58;;;;;;;0.10;0.10;;;;;;;;;;6217921;23;20000;-84
2023/10/15 02:47:48;;;;;;;0.10;0.10;;;;;;;;;;6217522;23;20008;-84
2023/10/15 02:50:18;;;;;;;0.10;0.10;;;8.30;99.90;;;;;;6218040;23;20505;-84
2023/10/15 02:52:44;;;;;;;0.10;0.10;;;8.60;99.90;;;;;;6217337;23;20074;-85
2023/10/15 02:55:16;;;;;;;0.10;0.10;;;8.60;99.90;;;;;;6218078;23;20490;-84
2023/10/15 02:57:43;;;;;;;0.10;0.10;;;8.40;99.90;;;;;;6218073;23;20001;-84
2023/10/15 03:00:32;;;;;;;0.08;0.08;;;8.20;99.90;;;;;;6217244;23;20008;-83
2023/10/15 03:03:06;;;;;;;0.10;0.10;;;8.40;99.90;;;;;;6217923;23;20051;-85
2023/10/15 03:05:38;;;;;;;0.10;0.10;;;;;;;;;;6217475;23;20026;-84
2023/10/15 03:08:04;;;;;;;0.10;0.10;;;8.40;99.90;;;;;;6217361;23;20008;-85
2023/10/15 03:10:44;;;;;;;0.10;0.10;;;;;;;;;;6217968;23;20004;-84
2023/10/15 03:13:14;;;;;;;0.10;0.10;;;;;;;;;;6217741;23;19996;-84
2023/10/15 03:15:48;;;;;;;0.10;0.10;;;;;;;;;;6217745;23;20000;-84
2023/10/15 03:18:21;;;;;;;0.10;0.10;;;8.20;99.90;;;;;;6217441;23;20015;-85
2023/10/15 03:20:49;;;;;;;0.10;0.10;;;;;;;;;;6217409;23;20007;-84
2023/10/15 03:23:17;;;;;;;0.10;0.10;;;;;;;;;;6217571;23;20016;-84
2023/10/15 03:25:43;;;;;;;0.10;0.10;;;;;;;;;;6217236;23;20103;-84
2023/10/15 03:28:11;;;;;;;0.10;0.10;;;;;;;;;;6217765;23;20008;-84
2023/10/15 03:30:44;;;;;;;0.10;0.10;;;;;;;;;;6216808;23;20015;-85
2023/10/15 03:33:11;;;;;;;0.10;0.10;;;;;;;;;;6217601;23;20004;-82
2023/10/15 03:35:39;;;;;;;0.00;0.00;;;8.00;99.90;;;;;;6217481;23;20003;-84
2023/10/15 03:38:07;;;;;;;0.10;0.10;;;;;;;;;;6216981;23;20000;-84
2023/10/15 03:40:46;;;;;;;0.10;0.10;;;;;;;;;;6217203;23;20027;-84
2023/10/15 03:43:15;;;;;;;0.10;0.10;;;8.30;99.90;;;;;;6217646;23;20000;-84
2023/10/15 03:45:53;;;;;;;0.05;0.05;;;8.30;99.90;;;;;;6243620;23;19996;-84
2023/10/15 03:48:29;;;;;;;0.10;0.10;;;8.40;99.90;;;;;;6217131;23;20435;-83
2023/10/15 03:50:57;;;;;;;0.10;0.10;;;8.30;99.90;;;;;;6217084;23;19996;-84
2023/10/15 03:53:27;;;;;;;0.10;0.10;;;8.40;99.90;;;;;;6217075;23;20046;-84
2023/10/15 03:55:57;;;;;;;0.10;0.10;;;8.30;99.90;;;;;;6217751;23;20501;-84
2023/10/15 03:58:23;;;;;;;0.10;0.10;;;8.30;99.90;;;;;;6217111;23;20008;-83
2023/10/15 04:00:56;;;;;;;0.10;0.10;;;8.50;99.90;;;;;;6216814;23;20011;-84
2023/10/15 04:03:25;;;;;;;0.10;0.10;;;;;;;;;;6244313;23;20431;-84
2023/10/15 04:05:52;;;;;;;0.10;0.10;;;8.30;99.90;;;;;;6216963;23;20032;-85
2023/10/15 04:08:19;;;;;;;0.00;0.00;;;;;;;;;;6216684;23;20008;-85
2023/10/15 04:10:55;;;;;;;0.10;0.10;;;8.40;99.90;;;;;;6216790;23;20004;-84
2023/10/15 04:13:21;;;;;;;0.10;0.10;;;;;;;;;;6217232;23;20039;-84
2023/10/15 04:15:50;;;;;;;0.00;0.00;;;8.40;99.90;;;;;;6243845;23;20027;-84
2023/10/15 04:18:17;;;;;;;0.10;0.10;;;;;;;;;;6242320;23;20001;-84
2023/10/15 04:20:43;;;;;;;0.10;0.10;;;;;;;;;;6217426;23;20008;-83
2023/10/15 04:23:13;;;;;;;0.10;0.10;;;;;;;;;;6217661;23;20004;-84
2023/10/15 04:25:39;;;;;;;;;;;8.30;99.90;;;;;;6218675;23;20047;-84
2023/10/15 04:28:13;;;;;;;0.10;0.10;;;8.20;99.90;;;;;;6217483;23;20345;-83
2023/10/15 04:30:40;;;;;;;0.10;0.10;;;;;;;;;;6217401;23;20004;-85
2023/10/15 04:33:15;;;;;;;0.10;0.10;;;8.30;99.90;;;;;;6217328;23;20415;-83
2023/10/15 04:35:41;;;;;;;0.10;0.10;;;;;;;;;;6217241;23;20000;-85
2023/10/15 04:38:07;;;;;;;0.10;0.10;;;8.20;99.90;;;;;;6243639;23;19996;-84
2023/10/15 04:41:00;;;;;;;0.10;0.10;;;8.20;99.90;;;;;;6217455;23;20070;-84
2023/10/15 04:43:26;;;;;;;0.00;0.00;;;8.20;99.90;;;;;;6244448;23;19996;-84
2023/10/15 04:45:57;;;;;;;0.10;0.10;;;8.20;99.90;;;;;;6217203;23;20087;-83
2023/10/15 04:48:36;;;;;;;0.10;0.10;;;8.40;99.90;;;;;;6216988;23;20043;-83
2023/10/15 04:51:12;;;;;;;0.10;0.10;;;;;;;;;;6216937;23;20049;-86
2023/10/15 04:53:42;;;;;;;0.10;0.10;;;8.30;99.90;;;;;;6243112;23;20071;-86
2023/10/15 04:56:08;;;;;;;0.10;0.10;;;;;;;;;;6215818;23;20096;-85
2023/10/15 04:58:34;;;;;;;0.10;0.10;;;;;;;;;;6216274;23;20016;-85
2023/10/15 05:01:00;;;;;;;0.10;0.10;;;;;;;;;;6215433;23;20008;-85
2023/10/15 05:03:26;;;;;;;0.10;0.10;;;;;;;;;;6215913;23;20004;-87
2023/10/15 05:05:55;;;;;;;0.10;0.10;;;;;;;;;;6217083;23;20012;-86
2023/10/15 05:08:24;;;;;;;0.10;0.10;;;;;;;;;;6218191;23;20004;-86
2023/10/15 05:10:50;;;;;;;0.10;0.10;;;;;;;;;;6217918;23;20446;-83
2023/10/15 05:13:17;;;;;;;0.10;0.10;;;8.30;99.90;;;;;;6217332;23;20005;-86
2023/10/15 05:15:46;;;;;;;0.10;0.10;;;8.30;99.90;;;;;;6217344;23;20419;-86
2023/10/15 05:18:14;;;;;;;0.10;0.10;;;;;;;;;;6217422;23;20005;-87
2023/10/15 05:20:40;;;;;;;0.10;0.10;;;;;;;;;;6217954;23;20039;-86
2023/10/15 05:23:06;;;;;;;0.10;0.10;;;;;;;;;;6218161;23;20000;-86
2023/10/15 05:25:32;;;;;;;0.10;0.10;;;;;;;;;;6217696;23;20000;-84
2023/10/15 05:27:59;;;;;;;0.10;0.10;;;;;;;;;;6217117;23;20336;-84
2023/10/15 05:30:26;;;;;;;0.10;0.10;;;;;;;;;;6217834;23;20004;-85
2023/10/15 05:32:52;;;;;;;0.00;0.00;;;;;;;;;;6218165;23;20289;-87
2023/10/15 05:35:18;;;;;;;0.10;0.10;;;8.10;99.90;;;;;;6217383;23;20003;-86
2023/10/15 05:37:45;;;;;;;0.10;0.10;;;8.10;99.90;;;;;;6217672;23;20399;-84
2023/10/15 05:40:17;;;;;;;0.10;0.10;;;;;;;;;;6217245;23;20004;-85
2023/10/15 05:42:43;;;;;;;0.10;0.10;;;;;;;;;;6217966;23;20014;-85
2023/10/15 05:45:09;;;;;;;0.10;0.10;;;8.00;99.90;;;;;;6217677;23;20000;-86
2023/10/15 05:47:36;;;;;;;0.10;0.10;;;;;;;;;;6217452;23;20012;-84
2023/10/15 05:50:04;;;;;;;0.10;0.10;;;;;;;;;;6216616;23;20328;-85
2023/10/15 05:52:30;;;;;;;0.10;0.10;;;;;;;;;;6217835;23;20018;-85
2023/10/15 05:54:56;;;;;;;0.10;0.10;;;;;;;;;;6217244;23;20402;-87
2023/10/15 05:57:22;;;;;;;0.10;0.10;;;;;;;;;;6217235;23;19996;-86
2023/10/15 05:59:50;;;;;;;0.10;0.10;;;8.00;99.90;;;;;;6216915;23;20008;-84
2023/10/15 06:02:17;;;;;;;0.10;0.10;;;;;;;;;;6217577;23;20004;-85
2023/10/15 06:04:43;;;;;;;0.10;0.10;;;;;;;;;;6217861;23;20031;-85
2023/10/15 06:07:10;;;;;;;0.10;0.10;;;;;;;;;;6217397;23;20008;-87
2023/10/15 06:09:36;;;;;;;0.10;0.10;;;;;;;;;;6216696;23;20011;-84
2023/10/15 06:12:02;;;;;;;0.10;0.10;;;;;;;;;;6217695;23;20424;-87
2023/10/15 06:14:28;;;;;;;0.10;0.10;;;;;;;;;;6216813;23;19996;-85
2023/10/15 06:16:55;;;;;;;0.10;0.10;;;8.10;99.90;;;;;;6214782;23;20030;-86
2023/10/15 06:19:21;;;;;;;0.10;0.10;;;;;;;;;;6215724;22;20432;-86
2023/10/15 06:21:47;;;;;;;0.10;0.10;;;;;;;;;;6217660;23;20038;-86
2023/10/15 06:24:14;;;;;;;0.10;0.10;;;;;;;;;;6216634;23;20004;-87
2023/10/15 06:26:40;;;;;;;0.10;0.10;;;;;;;;;;6217097;23;20000;-86
2023/10/15 06:29:09;;;;;;;0.00;0.00;;;;;;;;;;6217082;23;20087;-86
2023/10/15 06:31:35;;;;;;;0.00;0.00;;;;;;;;;;6217108;23;20031;-87
2023/10/15 06:34:01;;;;;;;0.10;0.10;;;;;;;;;;6217178;23;20058;-86
2023/10/15 06:36:27;;;;;;;0.10;0.10;;;;;;;;;;6215512;23;20004;-85
2023/10/15 06:38:53;;;;;;;0.08;0.08;;;;;;;;;;6216418;23;20008;-85
2023/10/15 06:41:19;;;;;;;0.10;0.10;;;;;;;;;;6217695;23;20082;-86
2023/10/15 06:43:47;;;;;;;0.10;0.10;;;;;;;;;;6217277;23;20043;-87
2023/10/15 06:46:12;;;;;;;0.10;0.10;;;;;;;;;;6215976;23;20000;-88
2023/10/15 06:48:38;;;;;;;0.00;0.00;;;;;;;;;;6216664;23;20091;-85
2023/10/15 06:51:06;;;;;;;0.00;0.00;;;;;;;;;;6216788;23;20060;-85
2023/10/15 06:53:32;;;;;;;0.10;0.10;;;;;;;;;;6217008;23;20351;-84
2023/10/15 06:55:58;;;;;;;0.10;0.10;;;;;;;;;;6217047;23;20415;-85
2023/10/15 06:58:25;;;;;;;0.10;0.10;;;;;;;;;;6216822;23;20038;-85
2023/10/15 07:00:55;;;;;;;0.10;0.10;;;8.40;99.90;;;;;;6216939;23;20011;-85
2023/10/15 07:03:21;;;;;;;0.00;0.00;;;;;;;;;;6217350;23;20095;-86
2023/10/15 07:05:47;;;;;;;0.10;0.10;;;;;;;;;;6216775;23;20046;-85
2023/10/15 07:08:13;;;;;;;0.10;0.10;;;;;;;;;;6216753;23;20007;-85
2023/10/15 07:10:39;;;;;;;0.10;0.10;;;8.30;99.90;;;;;;6217179;23;20000;-86
2023/10/15 07:13:06;;;;;;;0.10;0.10;;;;;;;;;;6217136;23;20004;-86
2023/10/15 07:15:35;;;;;;;0.10;0.10;;;;;;;;;;6216224;23;20004;-85
2023/10/15 07:18:01;;;;;;;0.10;0.10;;;;;;;;;;6213115;23;20062;-85
2023/10/15 07:20:27;;;;;;;0.10;0.10;;;;;;;;;;6214447;23;20056;-85
2023/10/15 07:22:53;;;;;;;0.10;0.10;;;8.20;99.90;;;;;;6214526;23;20000;-85
2023/10/15 07:25:21;;;;;;;0.10;0.10;;;8.30;99.90;;;;;;6214126;23;20003;-84
2023/10/15 07:27:49;;;;;;;0.10;0.10;;;8.10;99.90;;;;;;6213644;23;20000;-85
2023/10/15 07:30:21;;;;;;;0.10;0.10;;;8.20;99.90;;;;;;6214320;23;20054;-83
2023/10/15 07:32:48;;;;;;;0.10;0.10;;;;;;;;;;6215314;23;20000;-86
2023/10/15 07:35:15;;;;;;;0.10;0.10;;;8.20;99.90;;;;;;6214604;23;20004;-85
2023/10/15 07:37:44;;;;;;;0.10;0.10;;;8.20;99.90;;;;;;6241652;23;19996;-86
2023/10/15 07:40:18;;;;;;;0.10;0.10;;;8.40;99.90;;;;;;6216385;23;20343;-87
2023/10/15 07:42:48;;;;;;;0.00;0.00;;;8.30;99.90;;;;;;6243469;23;20544;-87
2023/10/15 07:45:14;;;;;;;0.10;0.10;;;;;;;;;;6217108;23;20731;-84
2023/10/15 07:47:40;;;;;;;0.10;0.10;;;;;;;;;;6217270;23;20004;-88
2023/10/15 07:50:08;;;;;;;0.10;0.10;;;8.80;99.90;;;;;;6216991;23;20042;-86
2023/10/15 07:52:34;;;;;;;0.10;0.10;;;8.90;99.90;;;;;;6216997;23;20090;-87
2023/10/15 07:55:00;;;;;;;0.10;0.10;;;;;;;;;;6241844;23;20004;-85
2023/10/15 07:57:26;;;;;;;0.10;0.10;;;;;;;;;;6216369;23;20008;-84
2023/10/15 07:59:58;;;;;;;0.10;0.10;;;;;;;;;;6215191;23;20463;-85
2023/10/15 08:02:24;;;;;;;0.10;0.10;;;;;;;;;;6215887;23;20079;-86
2023/10/15 08:04:54;;;;;;;0.10;0.10;;;8.90;99.90;;;;;;6216736;23;20028;-87
2023/10/15 08:07:20;;;;;;;;;;;8.90;99.90;;;;;;6215718;23;20015;-83
2023/10/15 08:09:46;;;;;;;0.10;0.10;;;;;;;;;;6215574;23;19903;-88
2023/10/15 08:12:12;;;;;;;0.10;0.10;;;;;;;;;;6216270;23;20431;-86
2023/10/15 08:14:38;;;;;;;0.08;0.08;;;;;;;;;;6215770;23;20007;-85
2023/10/15 08:17:04;;;;;;;0.10;0.10;;;;;;;;;;6244394;23;20382;-85
2023/10/15 08:19:30;;;;;;;0.10;0.10;;;;;;;;;;6228764;22;19999;-83
2023/10/15 08:21:56;;;;;;;0.00;0.00;;;;;;;;;;6242178;23;20490;-85
2023/10/15 08:24:22;;;;;;;0.00;0.00;;;;;;;;;;6217937;23;20005;-89
2023/10/15 08:26:48;;;;;;;0.10;0.10;;;;;;;;;;6217391;23;20011;-89
2023/10/15 08:29:14;;;;;;;0.08;0.08;;;;;;;;;;6218030;22;20078;-86
2023/10/15 08:31:40;;;;;;;0.10;0.10;;;;;;;;;;6217822;23;20387;-86
2023/10/15 08:34:07;;;;;;;0.00;0.00;;;;;;;;;;6244169;23;20004;-87
2023/10/15 08:36:33;;;;;;;0.10;0.10;;;;;;;;;;6244628;23;20064;-88
2023/10/15 08:39:03;;;;;;;0.00;0.00;;;;;;;;;;6218208;23;20040;-88
2023/10/15 08:41:30;;;;;;;0.08;0.08;;;9.40;99.90;;;;;;6218265;23;20439;-87
2023/10/15 08:43:56;;;;;;;0.10;0.10;;;9.70;99.90;;;;;;6216460;23;20038;-86
2023/10/15 08:46:25;;;;;;;0.10;0.10;;;;;;;;;;6217658;23;20031;-85
2023/10/15 08:48:51;;;;;;;0.10;0.10;;;;;;;;;;6218749;23;20048;-83
2023/10/15 08:51:21;;;;;;;0.10;0.10;;;;;;;;;;6245352;22;20079;-88
2023/10/15 08:53:50;;;;;;;0.10;0.10;;;9.70;99.90;;;;;;6245942;23;19996;-86
2023/10/15 08:56:21;;;;;;;0.10;0.10;;;9.90;99.90;;;;;;6218098;23;20074;-87
2023/10/15 08:58:52;;;;;;;0.00;0.00;;;10.10;99.90;;;;;;6217057;23;20000;-84
2023/10/15 09:01:18;;;;;;;0.00;0.00;;;;;;;;;;6217912;23;20013;-86
2023/10/15 09:03:44;;;;;;;0.00;0.00;;;;;;;;;;6218424;23;20008;-84
2023/10/15 09:06:09;;;;;;;0.10;0.10;;;10.50;99.90;;;;;;6218093;23;20134;-87
2023/10/15 09:08:41;;;;;;;0.00;0.00;;;;;;;;;;6216859;23;20099;-87
2023/10/15 09:11:07;;;;;;;0.10;0.10;;;;;;;;;;6217385;23;19992;-86
2023/10/15 09:13:36;;;;;;;0.00;0.00;;;;;;;;;;6218073;23;20382;-86
2023/10/15 09:16:03;;;;;;;0.00;0.00;;;;;;;;;;6218198;23;20007;-85
2023/10/15 09:18:29;;;;;;;0.00;0.00;;;;;;;;;;6218070;23;20020;-85
2023/10/15 09:20:58;;;;;;;0.10;0.10;;;;;;;;;;6218425;23;20091;-86
2023/10/15 09:23:24;;;;;;;0.00;0.00;;;;;;;;;;6218761;23;20014;-84
2023/10/15 09:25:56;;;;;;;0.00;0.00;;;10.60;99.90;;;;;;6217912;23;20491;-84
2023/10/15 09:28:22;;;;;;;0.00;0.00;;;;;;;;;;6244522;23;20071;-86
2023/10/15 09:30:48;;;;;;;0.00;0.00;;;10.50;99.90;;;;;;6217685;23;20004;-87
2023/10/15 09:33:17;;;;;;;0.00;0.00;;;;;;;;;;6218345;23;20015;-84
2023/10/15 09:35:43;;;;;;;0.00;0.00;;;;;;;;;;6217708;23;20457;-87
2023/10/15 09:38:13;;;;;;;0.00;0.00;;;10.80;99.90;;;;;;6218247;23;20000;-87
2023/10/15 09:40:40;;;;;;;0.00;0.00;;;;;;;;;;6217433;23;20079;-87
2023/10/15 09:43:08;;;;;;;0.00;0.00;;;;;;;;;;6213986;23;20083;-88
2023/10/15 09:45:34;;;;;;;0.10;0.10;;;;;;;;;;6217291;23;20054;-86
2023/10/15 09:48:00;;;;;;;0.00;0.00;;;;;;;;;;6217589;23;20008;-88
2023/10/15 09:50:28;;;;;;;0.00;0.00;;;10.60;99.90;;;;;;6217009;23;20011;-86
2023/10/15 09:53:01;;;;;;;0.00;0.00;;;10.70;99.90;;;;;;6215328;23;20016;-87
2023/10/15 09:55:33;;;;;;;0.00;0.00;;;10.80;99.90;;;;;;6217769;23;20000;-86
2023/10/15 09:58:01;;;;;;;0.00;0.00;;;10.80;99.90;;;;;;6217159;23;20011;-88
2023/10/15 10:03:39;;;;;;;0.05;0.05;;;10.90;99.90;;;;;;6245000;23;20013;-86
2023/10/15 10:06:31;;;;;;;0.00;0.00;;;11.00;99.90;;;;;;6216804;23;20004;-86
2023/10/15 10:09:21;;;;;;;0.00;0.00;;;10.70;99.90;;;;;;6216787;23;20008;-86
2023/10/15 10:12:06;;;;;;;0.10;0.10;;;10.70;99.90;;;;;;6217326;23;20000;-86
2023/10/15 10:14:47;;;;;;;0.10;0.10;;;10.90;99.90;;;;;;6216690;23;20000;-86
2023/10/15 10:17:13;;;;;;;0.00;0.00;;;11.10;99.90;;;;;;6244187;23;20000;-84
2023/10/15 10:19:41;;;;;;;0.10;0.10;;;;;;;;;;6215052;23;20011;-88
2023/10/15 10:22:39;;;;;;;0.10;0.10;;;11.00;99.90;;;;;;6217527;23;20008;-86
2023/10/15 10:25:07;;;;;;;0.00;0.00;;;11.00;99.90;;;;;;6136911;23;20012;-86
2023/10/15 10:27:42;;;;;;;0.00;0.00;;;11.00;99.90;;;;;;6216290;23;20075;-85
2023/10/15 10:30:29;;;;;;;0.05;0.05;;;10.70;99.90;;;;;;6215425;23;20061;-86
2023/10/15 10:33:01;;;;;;;0.08;0.08;;;10.70;99.90;;;;;;6215333;23;20012;-86
2023/10/15 10:35:27;;;;;;;0.10;0.10;;;;;;;;;;6214387;23;20033;-87
2023/10/15 10:38:16;;;;;;;0.00;0.00;;;10.80;99.90;;;;;;6215691;23;20083;-86
2023/10/15 10:41:04;;;;;;;0.10;0.10;;;11.00;99.90;;;;;;6215739;23;20008;-86
2023/10/15 10:43:32;;;;;;;0.00;0.00;;;;;;;;;;6214839;23;20146;-84
2023/10/15 10:45:59;;;;;;;0.10;0.10;;;10.90;99.90;;;;;;6215991;23;20008;-86
2023/10/15 10:48:27;;;;;;;0.00;0.00;;;10.70;99.90;;;;;;6215515;23;20012;-87
2023/10/15 11:29:50;;;;;;;0.10;0.10;;;12.00;99.90;;;;;;6273070;22;20474;-90
2023/10/15 11:32:16;;;;;;;0.00;0.00;;;;;;;;;;6217230;23;20028;-89
2023/10/15 11:34:42;;;;;;;0.00;0.00;;;11.90;99.90;;;;;;6216918;23;20007;-91
2023/10/15 11:37:09;;;;;;;0.00;0.00;;;;;;;;;;6217644;23;20435;-91
2023/10/15 11:39:38;;;;;;;0.00;0.00;;;12.30;99.90;;;;;;6218252;23;20003;-90
2023/10/15 11:42:04;;;;;;;0.08;0.08;;;12.10;99.90;;;;;;6216341;23;20024;-90
2023/10/15 11:44:33;;;;;;;0.00;0.00;;;;;;;;;;6217468;23;20383;-91
2023/10/15 11:47:08;;;;;;;0.00;0.00;;;11.80;99.90;;;;;;6211839;23;20371;-91
2023/10/15 11:49:35;;;;;;;0.00;0.00;;;;;;;;;;6215462;23;20004;-91
2023/10/15 11:52:05;;;;;;;0.00;0.00;;;11.60;99.90;;;;;;6217486;23;20058;-90
2023/10/15 11:54:31;;;;;;;0.00;0.00;;;;;;;;;;6216613;23;20004;-88
2023/10/15 11:57:04;;;;;;;0.00;0.00;;;11.40;99.90;;;;;;6218117;23;20553;-91
2023/10/15 11:59:31;;;;;;;0.00;0.00;;;;;;;;;;6218750;23;20000;-90
2023/10/15 12:02:01;;;;;;;0.00;0.00;;;;;;;;;;6217645;23;20343;-92
2023/10/15 12:04:26;;;;;;;;;;;11.30;99.90;;;;;;6218887;23;20004;-90
2023/10/15 12:06:52;;;;;;;0.00;0.00;;;;;;;;;;6217790;23;19900;-89
2023/10/15 12:09:24;;;;;;;0.00;0.00;;;;;;;;;;6217869;23;20005;-91
2023/10/15 12:11:50;;;;;;;0.00;0.00;;;;;;;;;;6217609;23;20451;-87
2023/10/15 12:14:17;;;;;;;0.00;0.00;;;;;;;;;;6218363;23;20052;-90
2023/10/15 12:16:44;;;;;;;0.00;0.00;;;;;;;;;;6216369;23;20882;-91
2023/10/15 12:19:10;;;;;;;0.00;0.00;;;;;;;;;;6217858;23;20103;-90
2023/10/15 12:21:39;;;;;;;0.00;0.00;;;11.60;99.90;;;;;;6217744;23;20009;-90
2023/10/15 12:24:11;;;;;;;0.00;0.00;;;11.60;99.90;;;;;;6218619;23;20013;-89
2023/10/15 12:26:36;;;;;;;0.00;0.00;;;;;;;;;;6217900;23;20496;-91
2023/10/15 12:29:03;;;;;;;0.00;0.00;;;;;;;;;;6213231;23;20016;-91
2023/10/15 12:31:30;;;;;;;0.10;0.10;;;;;;;;;;6216756;23;20089;-91
2023/10/15 12:33:56;;;;;;;0.00;0.00;;;;;;;;;;6216794;23;20427;-90
2023/10/15 12:36:22;;;;;;;0.00;0.00;;;;;;;;;;6217572;23;20013;-90
2023/10/15 12:38:48;;;;;;;0.00;0.00;;;;;;;;;;6216358;23;20000;-91
2023/10/15 12:41:14;;;;;;;0.00;0.00;;;;;;;;;;6218337;23;20008;-92
2023/10/15 12:43:40;;;;;;;0.08;0.08;;;;;;;;;;6217922;23;20490;-90
2023/10/15 12:46:07;;;;;;;0.10;0.10;;;10.60;99.90;;;;;;6244317;23;20075;-90
2023/10/15 12:48:33;;;;;;;0.00;0.00;;;;;;;;;;6217526;23;20086;-91
2023/10/15 12:50:59;;;;;;;0.00;0.00;;;10.10;99.90;;;;;;6216626;23;20032;-89
2023/10/15 12:53:25;;;;;;;0.00;0.00;;;;;;;;;;6217627;23;20014;-90
2023/10/15 12:55:51;;;;;;;0.00;0.00;;;;;;;;;;6216569;23;20331;-89
2023/10/15 12:58:17;;;;;;;0.00;0.00;;;;;;;;;;6217318;23;20000;-91
2023/10/15 13:00:44;;;;;;;0.00;0.00;;;;;;;;;;6217887;23;20423;-90
2023/10/15 13:03:10;;;;;;;0.10;0.10;;;10.10;99.90;;;;;;6217767;23;19996;-90
2023/10/15 13:05:36;;;;;;;0.00;0.00;;;;;;;;;;6217426;23;20007;-90
2023/10/15 13:08:03;;;;;;;0.05;0.05;;;;;;;;;;6217484;23;20000;-92
2023/10/15 13:10:29;;;;;;;0.10;0.10;;;;;;;;;;6217488;23;20385;-91
2023/10/15 13:12:55;;;;;;;0.00;0.00;;;;;;;;;;6216149;23;20028;-89
2023/10/15 13:15:22;;;;;;;0.00;0.00;;;9.80;99.90;;;;;;6217265;23;20011;-89
2023/10/15 13:17:54;;;;;;;0.05;0.05;;;10.20;99.90;;;;;;6217581;23;20007;-90
2023/10/15 13:20:21;;;;;;;0.03;0.03;;;;;;;;;;6218538;23;20012;-89
2023/10/15 13:22:48;;;;;;;0.10;0.10;;;;;;;;;;6217244;23;20008;-87
2023/10/15 13:25:14;;;;;;;0.00;0.00;;;;;;;;;;6245481;23;20000;-89
2023/10/15 13:27:40;;;;;;;0.00;0.00;;;;;;;;;;6220620;23;20016;-89
2023/10/15 13:30:15;;;;;;;0.00;0.00;;;10.00;99.90;;;;;;6219015;23;20012;-92
2023/10/15 13:32:41;;;;;;;0.10;0.10;;;;;;;;;;6220119;23;20000;-91
2023/10/15 13:35:10;;;;;;;0.00;0.00;;;10.20;99.90;;;;;;6218563;23;20023;-89
2023/10/15 13:37:36;;;;;;;0.10;0.10;;;;;;;;;;6220599;23;20087;-92
2023/10/15 13:40:02;;;;;;;0.00;0.00;;;;;;;;;;6222009;22;20012;-91
2023/10/15 13:42:29;;;;;;;0.10;0.10;;;10.50;99.90;;;;;;6220784;23;20184;-92
2023/10/15 13:44:54;;;;;;;0.00;0.00;;;;;;;;;;6189144;23;20020;-92
2023/10/15 13:47:20;;;;;;;0.00;0.00;;;;;;;;;;6188631;23;20011;-91
2023/10/15 13:49:46;;;;;;;0.00;0.00;;;;;;;;;;6190828;23;20075;-91
2023/10/15 13:52:12;;;;;;;0.10;0.10;;;;;;;;;;6190346;23;20008;-92
2023/10/15 13:54:38;;;;;;;0.05;0.05;;;;;;;;;;6189751;23;20005;-92
2023/10/15 13:57:06;;;;;;;0.10;0.10;;;;;;;;;;6189361;23;20009;-91
2023/10/15 13:59:31;;;;;;;0.00;0.00;;;;;;;;;;6191063;23;20036;-91
2023/10/15 14:01:57;;;;;;;0.10;0.10;;;;;;;;;;6190978;23;20016;-91
2023/10/15 14:04:23;;;;;;;0.00;0.00;;;;;;;;;;6190062;23;20008;-91
2023/10/15 14:06:49;;;;;;;0.10;0.10;;;;;;;;;;6190082;23;20008;-92
2023/10/15 14:09:15;;;;;;;0.00;0.00;;;;;;;;;;6193847;23;20001;-91
2023/10/15 14:11:42;;;;;;;0.00;0.00;;;10.70;99.90;;;;;;6190518;23;20005;-90
2023/10/15 14:14:08;;;;;;;0.10;0.10;;;;;;;;;;6189810;23;20083;-91
2023/10/15 14:16:34;;;;;;;0.10;0.10;;;;;;;;;;6190278;23;20336;-92
2023/10/15 14:19:00;;;;;;;0.00;0.00;;;;;;;;;;6190964;23;20009;-91
2023/10/15 14:21:27;;;;;;;0.00;0.00;;;;;;;;;;6188917;23;20036;-91
2023/10/15 14:23:53;;;;;;;0.00;0.00;;;;;;;;;;6189342;23;20027;-90
2023/10/15 14:26:21;;;;;;;0.10;0.10;;;;;;;;;;6189838;23;20146;-91
2023/10/15 14:28:46;;;;;;;0.10;0.10;;;;;;;;;;6189123;23;20350;-91
2023/10/15 14:31:12;;;;;;;0.00;0.00;;;;;;;;;;6188879;23;19997;-92
2023/10/15 14:33:38;;;;;;;0.00;0.00;;;;;;;;;;6189784;23;20000;-91
2023/10/15 14:36:06;;;;;;;0.00;0.00;;;11.40;99.90;;;;;;6190638;23;20024;-92
2023/10/15 14:38:32;;;;;;;0.00;0.00;;;;;;;;;;6190895;23;20036;-92
2023/10/15 14:40:58;;;;;;;0.00;0.00;;;;;;;;;;6190138;23;20001;-91
2023/10/15 14:43:24;;;;;;;0.00;0.00;;;;;;;;;;6188798;23;20009;-90
2023/10/15 14:45:50;;;;;;;0.10;0.10;;;;;;;;;;6188178;23;20007;-91
2023/10/15 14:48:17;;;;;;;0.10;0.10;;;;;;;;;;6188966;23;20040;-91
2023/10/15 14:50:44;;;;;;;0.10;0.10;;;9.30;99.90;;;;;;6189332;23;20005;-92
2023/10/15 14:53:10;;;;;;;0.10;0.10;;;;;;;;;;6188585;23;20032;-91
2023/10/15 14:55:36;;;;;;;0.10;0.10;;;;;;;;;;6189517;23;20004;-92
2023/10/15 14:58:05;;;;;;;0.03;0.03;;;;;;;;;;6187900;23;20001;-91
2023/10/15 15:00:31;;;;;;;0.10;0.10;;;;;;;;;;6188580;23;20005;-90